createdAt,value
2017-05-01T00:02:18.181Z,6.15
2017-05-01T00:04:45.968Z,5.35
2017-05-01T00:07:13.794Z,5.42
2017-05-01T00:09:41.779Z,5.53
2017-05-01T00:12:09.643Z,6.88
2017-05-01T00:14:37.504Z,5.92
2017-05-01T00:17:05.292Z,4.97
2017-05-01T00:19:32.759Z,5.87
2017-05-01T00:22:00.615Z,6.53
2017-05-01T00:24:28.103Z,6.33
2017-05-01T00:26:55.955Z,5.50
2017-05-01T00:29:23.419Z,7.98
2017-05-01T00:31:51.588Z,6.87
2017-05-01T00:34:19.447Z,6.78
2017-05-01T00:36:46.911Z,7.97
2017-05-01T00:39:14.783Z,7.62
2017-05-01T00:41:42.641Z,6.93
2017-05-01T00:44:10.106Z,6.52
2017-05-01T00:46:37.849Z,7.92
2017-05-01T00:49:05.708Z,7.88
2017-05-01T00:51:33.179Z,6.80
2017-05-01T00:54:00.945Z,6.75
2017-05-01T00:56:28.416Z,6.85
2017-05-01T00:58:56.299Z,6.93
2017-05-01T01:01:24.451Z,6.02
2017-05-01T01:03:52.316Z,6.38
2017-05-01T01:06:20.184Z,6.20
2017-05-01T01:08:47.922Z,6.25
2017-05-01T01:11:21.501Z,6.72
2017-05-01T01:13:49.504Z,6.10
2017-05-01T01:16:16.980Z,6.60
2017-05-01T01:18:44.847Z,6.35
2017-05-01T01:21:13.003Z,6.38
2017-05-01T01:23:40.476Z,6.47
2017-05-01T01:26:07.945Z,6.63
2017-05-01T01:28:35.837Z,6.80
2017-05-01T01:31:03.694Z,6.12
2017-05-01T01:33:31.171Z,6.87
2017-05-01T01:35:58.634Z,6.58
2017-05-01T01:38:26.511Z,7.38
2017-05-01T01:40:54.363Z,7.25
2017-05-01T01:43:21.843Z,6.33
2017-05-01T01:45:49.706Z,6.65
2017-05-01T01:48:17.572Z,6.93
2017-05-01T01:50:45.443Z,6.82
2017-05-01T01:53:13.308Z,6.55
2017-05-01T01:55:42.052Z,6.43
2017-05-01T01:58:10.284Z,5.83
2017-05-01T02:00:38.142Z,6.93
2017-05-01T02:03:06.026Z,7.62
2017-05-01T02:05:33.904Z,7.40
2017-05-01T02:08:01.368Z,6.43
2017-05-01T02:10:29.247Z,7.00
2017-05-01T02:12:57.474Z,6.82
2017-05-01T02:15:25.342Z,6.33
2017-05-01T02:17:53.199Z,6.85
2017-05-01T02:20:20.676Z,7.93
2017-05-01T02:22:48.527Z,7.37
2017-05-01T02:25:16.394Z,7.58
2017-05-01T02:27:44.255Z,7.12
2017-05-01T02:30:12.135Z,7.10
2017-05-01T02:32:39.605Z,7.57
2017-05-01T02:35:07.479Z,6.92
2017-05-01T02:37:35.335Z,7.30
2017-05-01T02:40:03.208Z,7.53
2017-05-01T02:42:30.666Z,6.68
2017-05-01T02:44:58.544Z,9.38
2017-05-01T02:47:26.394Z,8.83
2017-05-01T02:49:54.271Z,7.95
2017-05-01T02:52:22.127Z,8.33
2017-05-01T02:54:50.006Z,9.13
2017-05-01T02:57:17.481Z,8.60
2017-05-01T02:59:45.371Z,7.97
2017-05-01T03:02:13.240Z,8.68
2017-05-01T03:04:41.119Z,6.10
2017-05-01T03:07:08.979Z,6.42
2017-05-01T03:09:36.866Z,8.37
2017-05-01T03:12:04.732Z,6.18
2017-05-01T03:14:32.606Z,7.13
2017-05-01T03:17:00.460Z,6.72
2017-05-01T03:19:28.340Z,7.52
2017-05-01T03:21:55.800Z,6.55
2017-05-01T03:24:23.282Z,6.82
2017-05-01T03:26:51.136Z,7.10
2017-05-01T03:29:19.011Z,7.05
2017-05-01T03:31:46.471Z,6.93
2017-05-01T03:34:14.347Z,6.62
2017-05-01T03:36:42.203Z,7.43
2017-05-01T03:39:10.080Z,6.92
2017-05-01T03:41:37.939Z,7.18
2017-05-01T03:44:05.412Z,7.12
2017-05-01T03:46:32.879Z,7.58
2017-05-01T03:49:00.755Z,7.20
2017-05-01T03:51:28.217Z,7.68
2017-05-01T03:53:56.097Z,7.90
2017-05-01T03:56:23.950Z,7.25
2017-05-01T03:58:51.815Z,7.78
2017-05-01T04:01:19.270Z,8.18
2017-05-01T04:03:46.760Z,7.05
2017-05-01T04:06:14.633Z,7.68
2017-05-01T04:08:42.109Z,7.68
2017-05-01T04:11:09.971Z,7.40
2017-05-01T04:13:37.844Z,7.52
2017-05-01T04:16:05.706Z,8.27
2017-05-01T04:18:33.561Z,7.02
2017-05-01T04:21:01.040Z,7.53
2017-05-01T04:23:28.522Z,7.27
2017-05-01T04:25:56.370Z,8.22
2017-05-01T04:28:23.847Z,7.28
2017-05-01T04:30:51.318Z,7.15
2017-05-01T04:33:19.196Z,7.55
2017-05-01T04:35:47.050Z,8.35
2017-05-01T04:38:14.531Z,8.05
2017-05-01T04:40:42.387Z,9.15
2017-05-01T04:43:10.268Z,7.33
2017-05-01T04:45:37.727Z,7.63
2017-05-01T04:48:05.606Z,8.13
2017-05-01T04:50:33.482Z,7.72
2017-05-01T04:53:01.399Z,8.10
2017-05-01T04:55:28.873Z,7.82
2017-05-01T04:57:56.757Z,7.95
2017-05-01T05:00:24.621Z,8.72
2017-05-01T05:02:52.504Z,7.52
2017-05-01T05:05:20.372Z,8.67
2017-05-01T05:07:48.269Z,7.57
2017-05-01T05:10:16.139Z,7.68
2017-05-01T05:12:44.020Z,8.03
2017-05-01T05:15:11.893Z,8.15
2017-05-01T05:17:39.777Z,8.95
2017-05-01T05:20:07.640Z,9.43
2017-05-01T05:22:35.136Z,9.02
2017-05-01T05:25:03.380Z,8.53
2017-05-01T05:27:31.281Z,8.57
2017-05-01T05:29:59.516Z,9.72
2017-05-01T05:32:27.418Z,8.33
2017-05-01T05:34:54.896Z,7.90
2017-05-01T05:37:22.788Z,7.77
2017-05-01T05:39:50.261Z,8.42
2017-05-01T05:42:18.162Z,10.90
2017-05-01T05:44:45.644Z,8.93
2017-05-01T05:47:13.108Z,9.10
2017-05-01T05:49:40.983Z,8.85
2017-05-01T05:52:08.835Z,8.08
2017-05-01T05:54:36.694Z,12.30
2017-05-01T05:59:41.651Z,8.07
2017-05-01T06:02:09.523Z,10.28
2017-05-01T06:04:37.384Z,7.93
2017-05-01T06:07:05.259Z,8.07
2017-05-01T06:09:32.722Z,8.32
2017-05-01T06:12:00.594Z,9.33
2017-05-01T06:14:28.453Z,8.42
2017-05-01T06:16:56.330Z,8.08
2017-05-01T06:19:24.192Z,7.43
2017-05-01T06:21:51.676Z,8.50
2017-05-01T06:24:19.543Z,9.78
2017-05-01T06:26:47.424Z,8.20
2017-05-01T06:29:15.659Z,9.12
2017-05-01T06:31:43.536Z,9.02
2017-05-01T06:34:11.401Z,7.92
2017-05-01T06:36:39.279Z,9.17
2017-05-01T06:39:07.136Z,8.40
2017-05-01T06:41:35.010Z,9.03
2017-05-01T06:44:02.870Z,9.40
2017-05-01T06:46:30.732Z,9.23
2017-05-01T06:48:58.610Z,10.37
2017-05-01T06:51:26.482Z,8.65
2017-05-01T06:53:53.957Z,9.12
2017-05-01T06:56:21.831Z,8.25
2017-05-01T06:58:50.063Z,9.32
2017-05-01T07:01:17.934Z,8.88
2017-05-01T07:03:45.791Z,9.48
2017-05-01T07:06:13.676Z,8.40
2017-05-01T07:08:41.145Z,8.50
2017-05-01T07:11:09.019Z,9.40
2017-05-01T07:13:36.483Z,9.15
2017-05-01T07:16:04.731Z,9.07
2017-05-01T07:18:32.587Z,9.37
2017-05-01T07:21:00.442Z,9.18
2017-05-01T07:23:28.315Z,8.50
2017-05-01T07:25:56.186Z,9.03
2017-05-01T07:28:23.646Z,9.55
2017-05-01T07:30:51.531Z,10.42
2017-05-01T07:33:19.011Z,9.35
2017-05-01T07:35:46.881Z,9.17
2017-05-01T07:38:14.965Z,9.48
2017-05-01T07:40:42.888Z,11.48
2017-05-01T07:43:10.767Z,9.90
2017-05-01T07:45:38.722Z,10.05
2017-05-01T07:48:06.207Z,10.72
2017-05-01T07:50:34.433Z,10.45
2017-05-01T07:53:02.307Z,9.25
2017-05-01T07:55:30.171Z,10.35
2017-05-01T07:57:58.050Z,8.77
2017-05-01T08:00:25.903Z,4.50
2017-05-01T08:02:53.779Z,3.95
2017-05-01T08:05:21.640Z,2.18
2017-05-01T08:07:49.512Z,3.03
2017-05-01T08:10:17.366Z,5.02
2017-05-01T08:12:45.228Z,3.52
2017-05-01T08:15:13.112Z,2.32
2017-05-01T08:17:41.913Z,4.53
2017-05-01T08:20:09.781Z,3.53
2017-05-01T08:22:37.684Z,4.33
2017-05-01T08:25:05.152Z,5.08
2017-05-01T08:27:33.036Z,3.68
2017-05-01T08:30:00.500Z,4.42
2017-05-01T08:32:29.660Z,2.77
2017-05-01T08:34:57.589Z,4.37
2017-05-01T08:37:25.484Z,3.70
2017-05-01T08:39:55.700Z,4.85
2017-05-01T08:42:23.874Z,3.42
2017-05-01T08:44:51.796Z,4.47
2017-05-01T08:47:19.680Z,5.53
2017-05-01T08:49:49.518Z,4.65
2017-05-01T08:52:17.557Z,4.05
2017-05-01T08:54:45.415Z,4.02
2017-05-01T08:57:13.464Z,3.73
2017-05-01T08:59:41.333Z,3.03
2017-05-01T09:02:09.216Z,2.67
2017-05-01T09:04:37.089Z,4.95
2017-05-01T09:07:05.377Z,3.93
2017-05-01T09:09:33.248Z,3.23
2017-05-01T09:12:01.169Z,4.00
2017-05-01T09:14:29.024Z,3.02
2017-05-01T09:16:56.950Z,5.13
2017-05-01T09:19:24.807Z,5.97
2017-05-01T09:21:52.675Z,3.38
2017-05-01T09:24:20.528Z,3.57
2017-05-01T09:26:48.398Z,5.83
2017-05-01T09:29:16.251Z,4.05
2017-05-01T09:31:44.118Z,3.67
2017-05-01T09:34:11.593Z,4.13
2017-05-01T09:36:39.924Z,3.45
2017-05-01T09:39:07.421Z,9.50
2017-05-01T09:41:35.350Z,4.03
2017-05-01T09:44:04.199Z,5.17
2017-05-01T09:46:32.434Z,3.85
2017-05-01T09:48:59.897Z,6.67
2017-05-01T09:51:27.775Z,3.17
2017-05-01T09:53:55.234Z,8.33
2017-05-01T09:56:23.113Z,3.20
2017-05-01T09:58:50.970Z,8.17
2017-05-01T10:01:18.847Z,3.85
2017-05-01T10:03:46.306Z,3.48
2017-05-01T10:06:14.286Z,7.48
2017-05-01T10:08:41.743Z,5.25
2017-05-01T10:11:09.607Z,5.98
2017-05-01T10:13:37.823Z,3.70
2017-05-01T10:16:05.692Z,5.00
2017-05-01T10:18:33.544Z,4.32
2017-05-01T10:21:01.013Z,6.52
2017-05-01T10:23:28.863Z,4.47
2017-05-01T10:25:56.721Z,6.18
2017-05-01T10:28:24.591Z,5.63
2017-05-01T10:30:52.067Z,8.98
2017-05-01T10:33:19.527Z,8.75
2017-05-01T10:35:47.142Z,6.17
2017-05-01T10:38:14.997Z,4.55
2017-05-01T10:40:42.866Z,3.55
2017-05-01T10:43:10.715Z,4.50
2017-05-01T10:45:38.578Z,3.95
2017-05-01T10:48:06.437Z,5.50
2017-05-01T10:50:34.309Z,7.32
2017-05-01T10:53:02.166Z,2.78
2017-05-01T10:55:29.642Z,3.27
2017-05-01T10:57:57.495Z,6.07
2017-05-01T11:00:25.365Z,5.05
2017-05-01T11:02:53.220Z,6.12
2017-05-01T11:05:21.232Z,6.55
2017-05-01T11:07:49.087Z,7.40
2017-05-01T11:10:16.562Z,5.37
2017-05-01T11:12:44.029Z,7.05
2017-05-01T11:15:11.954Z,4.90
2017-05-01T11:17:39.454Z,4.42
2017-05-01T11:20:07.678Z,7.85
2017-05-01T11:22:35.546Z,4.30
2017-05-01T11:25:03.422Z,5.35
2017-05-01T11:27:30.996Z,6.38
2017-05-01T11:29:58.464Z,4.72
2017-05-01T11:32:26.346Z,2.35
2017-05-01T11:34:53.828Z,3.20
2017-05-01T11:37:21.697Z,4.37
2017-05-01T11:39:49.197Z,5.30
2017-05-01T11:42:17.428Z,2.78
2017-05-01T11:44:45.316Z,2.32
2017-05-01T11:47:13.179Z,2.20
2017-05-01T11:49:41.060Z,3.28
2017-05-01T11:52:08.928Z,3.80
2017-05-01T11:54:36.812Z,2.07
2017-05-01T11:57:04.473Z,1.73
2017-05-01T11:59:32.364Z,5.02
2017-05-01T12:01:59.827Z,3.10
2017-05-01T12:04:27.311Z,2.25
2017-05-01T12:06:55.162Z,1.28
2017-05-01T12:09:23.033Z,1.52
2017-05-01T12:11:50.500Z,3.63
2017-05-01T12:14:18.373Z,2.87
2017-05-01T12:16:46.228Z,2.85
2017-05-01T12:19:13.691Z,3.68
2017-05-01T12:21:41.576Z,2.65
2017-05-01T12:24:09.453Z,2.97
2017-05-01T12:26:37.325Z,3.20
2017-05-01T12:29:04.800Z,1.52
2017-05-01T12:31:32.658Z,2.05
2017-05-01T12:34:00.903Z,3.77
2017-05-01T12:36:28.764Z,1.32
2017-05-01T12:38:56.636Z,5.22
2017-05-01T12:41:24.491Z,4.32
2017-05-01T12:43:52.364Z,3.30
2017-05-01T12:46:20.224Z,3.68
2017-05-01T12:48:48.092Z,3.98
2017-05-01T12:51:15.946Z,2.55
2017-05-01T12:53:43.825Z,2.25
2017-05-01T12:56:11.707Z,6.30
2017-05-01T12:58:39.572Z,4.33
2017-05-01T13:01:07.038Z,6.05
2017-05-01T13:03:35.282Z,3.67
2017-05-01T13:06:03.139Z,2.03
2017-05-01T13:08:31.039Z,1.65
2017-05-01T13:10:58.917Z,3.00
2017-05-01T13:13:27.301Z,2.18
2017-05-01T13:15:56.537Z,2.92
2017-05-01T13:18:24.092Z,7.23
2017-05-01T13:20:51.964Z,2.82
2017-05-01T13:23:19.419Z,2.87
2017-05-01T13:25:47.367Z,2.93
2017-05-01T13:28:15.227Z,3.60
2017-05-01T13:30:42.695Z,2.82
2017-05-01T13:33:10.567Z,4.45
2017-05-01T13:35:38.284Z,2.47
2017-05-01T13:38:06.144Z,4.45
2017-05-01T13:40:34.036Z,2.12
2017-05-01T13:43:01.902Z,2.95
2017-05-01T13:45:29.383Z,4.22
2017-05-01T13:47:57.242Z,2.88
2017-05-01T13:50:25.132Z,2.47
2017-05-01T13:52:52.991Z,3.20
2017-05-01T13:55:20.876Z,2.28
2017-05-01T13:57:48.740Z,3.43
2017-05-01T14:00:16.614Z,3.73
2017-05-01T14:02:44.467Z,4.65
2017-05-01T14:05:12.338Z,2.32
2017-05-01T14:07:40.191Z,4.70
2017-05-01T14:10:08.059Z,4.38
2017-05-01T14:12:35.907Z,3.10
2017-05-01T14:15:03.771Z,5.60
2017-05-01T14:17:31.628Z,6.30
2017-05-01T14:19:59.499Z,2.65
2017-05-01T14:22:26.963Z,2.83
2017-05-01T14:24:54.843Z,3.55
2017-05-01T14:27:22.311Z,2.52
2017-05-01T14:29:50.195Z,1.82
2017-05-01T14:32:18.056Z,5.10
2017-05-01T14:34:45.919Z,5.80
2017-05-01T14:37:13.795Z,3.23
2017-05-01T14:39:41.274Z,4.65
2017-05-01T14:42:08.745Z,12.22
2017-05-01T14:44:36.221Z,6.98
2017-05-01T14:47:04.159Z,35.12
2017-05-01T14:49:32.250Z,4.03
2017-05-01T14:52:00.119Z,4.80
2017-05-01T14:54:28.005Z,4.30
2017-05-01T14:56:55.894Z,4.72
2017-05-01T14:59:23.768Z,23.75
2017-05-01T15:01:51.651Z,11.40
2017-05-01T15:04:19.542Z,3.07
2017-05-01T15:06:47.784Z,12.35
2017-05-01T15:09:15.652Z,7.90
2017-05-01T15:11:43.507Z,5.78
2017-05-01T15:14:11.393Z,121.55
2017-05-01T15:16:39.463Z,6.32
2017-05-01T15:19:07.332Z,4.82
2017-05-01T15:21:34.791Z,5.22
2017-05-01T15:24:02.658Z,7.25
2017-05-01T15:26:30.111Z,9.22
2017-05-01T15:28:57.589Z,13.27
2017-05-01T15:31:25.460Z,16.45
2017-05-01T15:33:53.323Z,6.95
2017-05-01T15:36:21.184Z,10.20
2017-05-01T15:38:48.658Z,5.30
2017-05-01T15:41:16.516Z,11.45
2017-05-01T15:43:44.387Z,8.80
2017-05-01T15:46:12.244Z,6.25
2017-05-01T15:48:40.119Z,24.30
2017-05-01T15:51:07.970Z,9.98
2017-05-01T15:53:35.844Z,4.90
2017-05-01T15:56:03.299Z,6.37
2017-05-01T15:58:30.771Z,6.92
2017-05-01T16:00:58.631Z,30.27
2017-05-01T16:03:26.505Z,6.12
2017-05-01T16:05:54.362Z,6.73
2017-05-01T16:08:22.228Z,8.28
2017-05-01T16:10:50.091Z,11.62
2017-05-01T16:13:17.964Z,5.52
2017-05-01T16:15:45.825Z,6.05
2017-05-01T16:18:13.702Z,6.40
2017-05-01T16:20:41.159Z,6.57
2017-05-01T16:23:08.635Z,6.07
2017-05-01T16:25:36.498Z,8.22
2017-05-01T16:28:04.372Z,8.80
2017-05-01T16:30:32.231Z,11.18
2017-05-01T16:33:00.100Z,6.65
2017-05-01T16:35:27.953Z,6.32
2017-05-01T16:37:55.823Z,10.05
2017-05-01T16:40:23.279Z,7.22
2017-05-01T16:42:50.749Z,5.82
2017-05-01T16:45:18.206Z,7.23
2017-05-01T16:47:46.077Z,6.00
2017-05-01T16:50:13.931Z,6.23
2017-05-01T16:52:41.799Z,5.83
2017-05-01T16:55:09.651Z,5.37
2017-05-01T16:57:37.125Z,6.08
2017-05-01T17:00:04.982Z,10.75
2017-05-01T17:02:32.831Z,7.15
2017-05-01T17:05:00.301Z,4.75
2017-05-01T17:07:28.170Z,4.88
2017-05-01T17:09:55.629Z,5.50
2017-05-01T17:12:23.494Z,7.42
2017-05-01T17:14:51.351Z,10.33
2017-05-01T17:17:18.822Z,6.42
2017-05-01T17:19:46.673Z,7.13
2017-05-01T17:22:14.142Z,5.77
2017-05-01T17:24:41.995Z,5.95
2017-05-01T17:27:09.867Z,6.07
2017-05-01T17:29:37.318Z,7.40
2017-05-01T17:32:05.186Z,6.97
2017-05-01T17:34:32.635Z,6.62
2017-05-01T17:37:00.110Z,7.98
2017-05-01T17:39:27.960Z,5.52
2017-05-01T17:41:55.826Z,6.17
2017-05-01T17:44:24.431Z,6.02
2017-05-01T17:46:52.300Z,6.23
2017-05-01T17:49:20.147Z,7.75
2017-05-01T17:51:47.995Z,8.00
2017-05-01T17:54:15.463Z,9.38
2017-05-01T17:56:43.312Z,8.00
2017-05-01T17:59:11.550Z,6.53
2017-05-01T18:01:39.403Z,6.33
2017-05-01T18:04:07.272Z,6.20
2017-05-01T18:06:35.168Z,7.13
2017-05-01T18:09:03.046Z,8.00
2017-05-01T18:11:31.266Z,8.35
2017-05-01T18:13:59.136Z,7.87
2017-05-01T18:16:26.991Z,7.23
2017-05-01T18:18:54.443Z,9.40
2017-05-01T18:21:21.910Z,8.00
2017-05-01T18:23:49.772Z,12.37
2017-05-01T18:26:17.533Z,9.87
2017-05-01T18:28:45.930Z,14.52
2017-05-01T18:31:14.272Z,17.82
2017-05-01T18:33:42.183Z,14.15
2017-05-01T18:36:10.195Z,11.20
2017-05-01T18:38:38.153Z,13.70
2017-05-01T18:41:06.324Z,10.13
2017-05-01T18:43:34.209Z,11.33
2017-05-01T18:46:02.533Z,14.68
2017-05-01T18:48:30.826Z,11.73
2017-05-01T18:50:59.135Z,11.17
2017-05-01T18:53:27.279Z,9.92
2017-05-01T18:55:55.427Z,9.80
2017-05-01T18:58:23.290Z,12.67
2017-05-01T19:00:51.487Z,14.10
2017-05-01T19:03:19.627Z,12.75
2017-05-01T19:05:47.430Z,18.38
2017-05-01T19:08:15.897Z,11.27
2017-05-01T19:10:43.912Z,12.53
2017-05-01T19:13:11.669Z,12.22
2017-05-01T19:15:40.498Z,13.05
2017-05-01T19:18:09.136Z,15.52
2017-05-01T19:20:37.279Z,14.25
2017-05-01T19:23:05.390Z,17.43
2017-05-01T19:25:33.183Z,15.23
2017-05-01T19:28:01.246Z,16.67
2017-05-01T19:30:29.308Z,18.35
2017-05-01T19:32:57.001Z,19.40
2017-05-01T19:35:24.647Z,17.42
2017-05-01T19:37:53.006Z,16.93
2017-05-01T19:40:20.889Z,17.42
2017-05-01T19:42:48.554Z,17.82
2017-05-01T19:45:16.759Z,23.60
2017-05-01T19:47:45.050Z,23.87
2017-05-01T19:50:12.956Z,23.72
2017-05-01T19:52:40.447Z,21.85
2017-05-01T19:55:08.365Z,23.92
2017-05-01T19:57:35.848Z,26.60
2017-05-01T20:00:03.714Z,25.25
2017-05-01T20:02:31.542Z,33.52
2017-05-01T20:04:59.919Z,23.47
2017-05-01T20:07:28.163Z,29.98
2017-05-01T20:09:56.057Z,27.97
2017-05-01T20:12:24.006Z,31.35
2017-05-01T20:14:51.601Z,24.53
2017-05-01T20:17:19.943Z,27.37
2017-05-01T20:19:47.575Z,29.82
2017-05-01T20:22:15.285Z,22.22
2017-05-01T20:24:43.747Z,21.55
2017-05-01T20:27:12.043Z,21.88
2017-05-01T20:29:40.084Z,22.32
2017-05-01T20:32:08.146Z,22.90
2017-05-01T20:34:36.012Z,23.97
2017-05-01T20:37:04.006Z,28.70
2017-05-01T20:39:32.159Z,31.13
2017-05-01T20:42:00.102Z,24.40
2017-05-01T20:44:28.332Z,37.50
2017-05-01T20:46:56.403Z,40.77
2017-05-01T20:49:24.530Z,32.62
2017-05-01T20:51:52.524Z,31.98
2017-05-01T20:54:20.241Z,35.65
2017-05-01T20:56:48.110Z,41.43
2017-05-01T20:59:16.075Z,40.90
2017-05-01T21:01:44.111Z,40.92
2017-05-01T21:04:11.997Z,37.80
2017-05-01T21:06:40.185Z,37.25
2017-05-01T21:09:08.356Z,36.47
2017-05-01T21:11:36.153Z,35.03
2017-05-01T21:14:04.040Z,35.03
2017-05-01T21:16:32.183Z,28.17
2017-05-01T21:18:59.786Z,31.38
2017-05-01T21:21:27.777Z,38.07
2017-05-01T21:23:55.954Z,36.82
2017-05-01T21:26:24.031Z,44.38
2017-05-01T21:28:51.899Z,45.28
2017-05-01T21:31:19.690Z,41.48
2017-05-01T21:33:47.412Z,40.27
2017-05-01T21:36:16.158Z,45.42
2017-05-01T21:38:44.591Z,46.27
2017-05-01T21:41:12.619Z,51.83
2017-05-01T21:43:40.514Z,41.22
2017-05-01T21:46:08.734Z,41.62
2017-05-01T21:48:36.604Z,49.35
2017-05-01T21:51:04.179Z,38.87
2017-05-01T21:53:32.047Z,47.38
2017-05-01T21:56:01.190Z,40.15
2017-05-01T21:58:28.772Z,37.13
2017-05-01T22:00:56.828Z,40.95
2017-05-01T22:03:25.157Z,45.35
2017-05-01T22:05:52.783Z,41.90
2017-05-01T22:08:20.294Z,42.40
2017-05-01T22:10:48.201Z,46.28
2017-05-01T22:13:15.817Z,39.18
2017-05-01T22:15:44.111Z,34.20
2017-05-01T22:18:12.118Z,43.67
2017-05-01T22:20:39.888Z,44.75
2017-05-01T22:23:07.880Z,54.32
2017-05-01T22:25:35.892Z,51.87
2017-05-01T22:28:03.907Z,57.17
2017-05-01T22:30:31.731Z,57.20
2017-05-01T22:32:59.323Z,52.58
2017-05-01T22:35:27.460Z,36.70
2017-05-01T22:37:55.440Z,50.22
2017-05-01T22:40:23.295Z,46.62
2017-05-01T22:42:51.216Z,37.77
2017-05-01T22:45:20.290Z,42.72
2017-05-01T22:47:48.191Z,32.75
2017-05-01T22:50:15.861Z,42.18
2017-05-01T22:52:43.885Z,43.62
2017-05-01T22:55:11.771Z,32.92
2017-05-01T22:57:39.639Z,33.63
2017-05-01T23:00:07.510Z,36.40
2017-05-01T23:02:35.368Z,33.77
2017-05-01T23:05:02.844Z,35.80
2017-05-01T23:07:30.927Z,39.63
2017-05-01T23:09:58.803Z,35.50
2017-05-01T23:12:26.262Z,34.03
2017-05-01T23:14:53.738Z,34.32
2017-05-01T23:17:21.595Z,32.50
2017-05-01T23:19:49.469Z,30.13
2017-05-01T23:22:17.327Z,31.00
2017-05-01T23:24:45.197Z,41.32
2017-05-01T23:27:13.055Z,31.62
2017-05-01T23:29:41.239Z,40.65
2017-05-01T23:32:08.695Z,40.32
2017-05-01T23:34:36.153Z,35.45
2017-05-01T23:37:04.017Z,38.02
2017-05-01T23:39:31.880Z,34.63
2017-05-01T23:41:59.742Z,37.12
2017-05-01T23:44:27.739Z,37.90
2017-05-01T23:46:55.598Z,43.37
2017-05-01T23:49:23.455Z,44.85
2017-05-01T23:51:51.348Z,45.98
2017-05-01T23:54:18.814Z,45.92
2017-05-01T23:56:46.279Z,46.03
2017-05-01T23:59:14.342Z,40.02
